Terminal Aerodrome Forecast
Issued by NWS

Home | Current Version | Previous Version | Graphics & Text | Print | Product List | Glossary On
Versions: 1 2 3 4 5 6 7 8 9 10 11 12 13 14 15 16 17 18
995
FTUS43 KMPX 230542
TAFAXN
TAF
KAXN 230542Z 2306/2406 36012KT P6SM SCT250
     FM231800 04010KT P6SM OVC120
     FM240000 03014G24KT P6SM OVC070=

USA.gov is the U.S. government's official web portal to all federal, state and local government web resources and services.